createdAt,value
2022-08-21T00:01:55.042Z,28.00
2022-08-21T00:04:29.327Z,28.00
2022-08-21T00:07:00.872Z,27.97
2022-08-21T00:09:30.298Z,27.96
2022-08-21T00:11:58.903Z,27.95
2022-08-21T00:14:27.449Z,27.93
2022-08-21T00:17:00.340Z,27.91
2022-08-21T00:19:29.469Z,27.89
2022-08-21T00:21:59.702Z,27.88
2022-08-21T00:24:29.036Z,27.86
2022-08-21T00:26:57.704Z,27.83
2022-08-21T00:29:26.336Z,27.81
2022-08-21T00:31:54.968Z,27.80
2022-08-21T00:34:23.650Z,27.76
2022-08-21T00:36:52.340Z,27.75
2022-08-21T00:39:22.385Z,27.73
2022-08-21T00:41:50.956Z,27.73
2022-08-21T00:44:19.508Z,27.70
2022-08-21T00:46:48.120Z,27.69
2022-08-21T00:49:19.489Z,27.67
2022-08-21T00:51:53.908Z,27.66
2022-08-21T00:54:27.600Z,27.66
2022-08-21T00:57:01.573Z,27.64
2022-08-21T00:59:35.693Z,27.63
2022-08-21T01:02:05.870Z,27.62
2022-08-21T01:04:34.449Z,27.60
2022-08-21T01:07:04.292Z,27.58
2022-08-21T01:09:34.557Z,27.57
2022-08-21T01:12:04.076Z,27.56
2022-08-21T01:14:33.170Z,27.54
2022-08-21T01:17:05.124Z,27.54
2022-08-21T01:19:35.019Z,27.52
2022-08-21T01:22:05.341Z,27.52
2022-08-21T01:24:34.144Z,27.51
2022-08-21T01:27:03.240Z,27.50
2022-08-21T01:29:38.693Z,27.49
2022-08-21T01:32:13.758Z,27.49
2022-08-21T01:34:47.023Z,27.49
2022-08-21T01:37:17.969Z,27.48
2022-08-21T01:39:47.179Z,27.47
2022-08-21T01:42:16.354Z,27.47
2022-08-21T01:44:45.669Z,27.46
2022-08-21T01:47:18.229Z,27.45
2022-08-21T01:49:47.356Z,27.46
2022-08-21T01:52:17.746Z,27.43
2022-08-21T01:54:46.664Z,27.41
2022-08-21T01:57:25.974Z,27.39
2022-08-21T01:59:55.902Z,27.37
2022-08-21T02:02:24.493Z,27.35
2022-08-21T02:04:53.098Z,27.33
2022-08-21T02:07:23.299Z,27.31
2022-08-21T02:09:51.970Z,27.29
2022-08-21T02:12:22.345Z,27.28
2022-08-21T02:14:51.046Z,27.25
2022-08-21T02:17:20.001Z,27.24
2022-08-21T02:19:48.524Z,27.20
2022-08-21T02:22:17.393Z,27.20
2022-08-21T02:24:54.571Z,27.18
2022-08-21T02:27:26.801Z,27.17
2022-08-21T02:29:56.860Z,27.15
2022-08-21T02:32:26.860Z,27.14
2022-08-21T02:34:56.230Z,27.13
2022-08-21T02:37:26.593Z,27.11
2022-08-21T02:39:56.583Z,27.09
2022-08-21T02:42:25.224Z,27.06
2022-08-21T02:44:53.858Z,27.05
2022-08-21T02:47:22.529Z,27.03
2022-08-21T02:49:51.035Z,27.00
2022-08-21T02:52:19.674Z,26.98
2022-08-21T02:54:48.392Z,26.97
2022-08-21T02:57:18.846Z,26.96
2022-08-21T02:59:48.002Z,26.93
2022-08-21T03:02:16.649Z,26.93
2022-08-21T03:04:46.829Z,26.91
2022-08-21T03:07:16.319Z,26.89
2022-08-21T03:09:50.770Z,26.89
2022-08-21T03:12:26.640Z,26.87
2022-08-21T03:14:58.756Z,26.85
2022-08-21T03:17:29.745Z,26.83
2022-08-21T03:19:59.498Z,26.82
2022-08-21T03:22:30.754Z,26.81
2022-08-21T03:25:00.380Z,26.80
2022-08-21T03:27:31.807Z,26.79
2022-08-21T03:30:00.829Z,26.76
2022-08-21T03:32:30.116Z,26.75
2022-08-21T03:34:58.730Z,26.72
2022-08-21T03:37:27.414Z,26.72
2022-08-21T03:39:56.264Z,26.70
2022-08-21T03:42:24.883Z,26.68
2022-08-21T03:44:54.977Z,26.66
2022-08-21T03:47:24.038Z,26.64
2022-08-21T03:49:53.098Z,26.63
2022-08-21T03:52:21.640Z,26.62
2022-08-21T03:54:51.265Z,26.59
2022-08-21T03:57:20.331Z,26.56
2022-08-21T03:59:49.230Z,26.56
2022-08-21T04:02:22.441Z,26.54
2022-08-21T04:04:51.032Z,26.52
2022-08-21T04:07:19.703Z,26.49
2022-08-21T04:09:48.278Z,26.48
2022-08-21T04:12:17.194Z,26.44
2022-08-21T04:14:46.009Z,26.43
2022-08-21T04:17:14.517Z,26.41
2022-08-21T04:19:44.443Z,26.39
2022-08-21T04:22:13.313Z,26.38
2022-08-21T04:24:41.899Z,26.35
2022-08-21T04:27:10.545Z,26.34
2022-08-21T04:29:40.149Z,26.33
2022-08-21T04:32:09.103Z,26.30
2022-08-21T04:34:37.993Z,26.30
2022-08-21T04:37:08.050Z,26.28
2022-08-21T04:39:36.556Z,26.25
2022-08-21T04:42:07.696Z,26.25
2022-08-21T04:44:36.585Z,26.24
2022-08-21T04:47:05.370Z,26.23
2022-08-21T04:49:34.125Z,26.22
2022-08-21T04:52:03.781Z,26.21
2022-08-21T04:54:33.897Z,26.19
2022-08-21T04:57:08.237Z,26.20
2022-08-21T04:59:43.507Z,26.18
2022-08-21T05:02:13.568Z,26.17
2022-08-21T05:04:53.711Z,26.16
2022-08-21T05:07:42.274Z,26.15
2022-08-21T05:10:14.939Z,26.12
2022-08-21T05:12:45.135Z,26.11
2022-08-21T05:15:14.970Z,26.12
2022-08-21T05:17:44.037Z,26.11
2022-08-21T05:20:22.337Z,26.09
2022-08-21T05:22:51.361Z,26.09
2022-08-21T05:25:22.357Z,26.10
2022-08-21T05:27:52.626Z,26.08
2022-08-21T05:30:22.502Z,26.09
2022-08-21T05:32:51.080Z,26.07
2022-08-21T05:35:19.790Z,26.07
2022-08-21T05:37:48.435Z,26.07
2022-08-21T05:40:20.941Z,26.07
2022-08-21T05:42:54.389Z,26.05
2022-08-21T05:45:42.285Z,26.04
2022-08-21T05:48:14.536Z,26.04
2022-08-21T05:50:43.945Z,26.04
2022-08-21T05:53:13.566Z,26.04
2022-08-21T05:55:46.142Z,26.06
2022-08-21T05:58:19.713Z,26.07
2022-08-21T06:00:50.057Z,26.07
2022-08-21T06:03:23.566Z,26.06
2022-08-21T06:05:52.508Z,26.05
2022-08-21T06:08:22.504Z,26.05
2022-08-21T06:10:53.518Z,26.03
2022-08-21T06:13:24.652Z,26.03
2022-08-21T06:16:03.323Z,26.04
2022-08-21T06:18:32.056Z,26.03
2022-08-21T06:21:00.959Z,26.05
2022-08-21T06:23:33.067Z,26.08
2022-08-21T06:26:02.615Z,26.09
2022-08-21T06:28:33.071Z,26.10
2022-08-21T06:31:02.277Z,26.10
2022-08-21T06:33:32.861Z,26.09
2022-08-21T06:36:01.709Z,26.07
2022-08-21T06:38:30.457Z,26.06
2022-08-21T06:41:00.314Z,26.04
2022-08-21T06:43:37.848Z,26.03
2022-08-21T06:46:09.469Z,26.02
2022-08-21T06:48:38.157Z,26.01
2022-08-21T06:51:07.298Z,26.01
2022-08-21T06:53:36.170Z,26.02
2022-08-21T06:56:05.839Z,26.03
2022-08-21T06:58:36.176Z,26.04
2022-08-21T07:01:06.051Z,26.06
2022-08-21T07:03:38.445Z,26.07
2022-08-21T07:06:09.418Z,26.08
2022-08-21T07:08:39.551Z,26.09
2022-08-21T07:11:15.236Z,26.12
2022-08-21T07:13:45.289Z,26.13
2022-08-21T07:16:14.099Z,26.14
2022-08-21T07:19:00.677Z,26.15
2022-08-21T07:21:32.579Z,26.15
2022-08-21T07:24:05.746Z,26.17
2022-08-21T07:26:34.654Z,26.17
2022-08-21T07:29:05.751Z,26.18
2022-08-21T07:31:34.620Z,26.18
2022-08-21T07:34:03.259Z,26.18
2022-08-21T07:36:33.324Z,26.19
2022-08-21T07:39:04.005Z,26.22
2022-08-21T07:41:33.071Z,26.25
2022-08-21T07:44:06.639Z,26.30
2022-08-21T07:46:40.716Z,26.31
2022-08-21T07:49:09.330Z,26.33
2022-08-21T07:51:38.370Z,26.34
2022-08-21T07:54:07.398Z,26.35
2022-08-21T07:59:06.044Z,26.40
2022-08-21T08:01:34.768Z,26.45
2022-08-21T08:04:04.290Z,26.47
2022-08-21T08:06:33.012Z,26.52
2022-08-21T08:09:04.380Z,26.56
2022-08-21T08:11:34.202Z,26.59
2022-08-21T08:14:04.837Z,26.63
2022-08-21T08:16:35.155Z,26.69
2022-08-21T08:19:04.342Z,26.73
2022-08-21T08:21:34.581Z,26.78
2022-08-21T08:24:18.305Z,26.82
2022-08-21T08:26:53.615Z,26.88
2022-08-21T08:29:23.292Z,26.93
2022-08-21T08:31:53.675Z,26.97
2022-08-21T08:34:25.643Z,27.02
2022-08-21T08:36:55.108Z,27.04
2022-08-21T08:39:26.618Z,27.08
2022-08-21T08:42:32.009Z,27.13
2022-08-21T08:45:01.559Z,27.17
2022-08-21T08:47:33.764Z,27.22
2022-08-21T08:50:07.651Z,27.26
2022-08-21T08:52:41.648Z,27.31
2022-08-21T08:55:15.058Z,27.36
2022-08-21T08:57:50.281Z,27.40
2022-08-21T09:00:23.716Z,27.47
2022-08-21T09:03:01.169Z,27.51
2022-08-21T09:05:35.820Z,27.54
2022-08-21T09:08:39.914Z,27.57
2022-08-21T09:11:15.831Z,27.65
2022-08-21T09:13:53.343Z,27.71
2022-08-21T09:16:33.261Z,27.76
2022-08-21T09:19:14.264Z,27.80
2022-08-21T09:21:53.465Z,27.83
2022-08-21T09:24:34.009Z,27.86
2022-08-21T09:27:10.479Z,27.88
2022-08-21T09:29:41.969Z,27.93
2022-08-21T09:32:19.335Z,27.94
2022-08-21T09:35:01.767Z,27.99
2022-08-21T09:37:33.111Z,28.04
2022-08-21T09:40:02.137Z,28.07
2022-08-21T09:42:33.873Z,28.12
2022-08-21T09:45:15.943Z,28.16
2022-08-21T09:47:46.626Z,28.17
2022-08-21T09:50:19.774Z,28.23
2022-08-21T09:52:53.077Z,28.29
2022-08-21T09:55:49.030Z,28.33
2022-08-21T09:58:20.307Z,28.35
2022-08-21T10:01:01.081Z,28.38
2022-08-21T10:03:30.271Z,28.40
2022-08-21T10:06:09.323Z,28.43
2022-08-21T10:08:40.819Z,28.48
2022-08-21T10:11:16.094Z,28.52
2022-08-21T10:13:56.267Z,28.56
2022-08-21T10:16:39.595Z,28.61
2022-08-21T10:19:21.578Z,28.66
2022-08-21T10:22:05.112Z,28.70
2022-08-21T10:24:39.962Z,28.75
2022-08-21T10:27:23.224Z,28.81
2022-08-21T10:29:59.564Z,28.83
2022-08-21T10:32:59.913Z,28.83
2022-08-21T10:35:33.285Z,28.85
2022-08-21T10:39:02.663Z,28.89
2022-08-21T10:42:05.162Z,28.94
2022-08-21T10:44:43.059Z,29.02
2022-08-21T10:47:20.286Z,29.11
2022-08-21T10:49:58.083Z,29.15
2022-08-21T10:53:01.718Z,29.20
2022-08-21T10:55:38.483Z,29.26
2022-08-21T10:58:12.898Z,29.32
2022-08-21T11:00:46.258Z,29.37
2022-08-21T11:03:20.604Z,29.45
2022-08-21T11:05:55.303Z,29.49
2022-08-21T11:08:29.139Z,29.55
2022-08-21T11:11:08.804Z,29.63
2022-08-21T11:13:44.139Z,29.67
2022-08-21T11:16:23.525Z,29.72
2022-08-21T11:19:00.529Z,29.75
2022-08-21T11:21:39.182Z,29.80
2022-08-21T11:24:32.380Z,29.84
2022-08-21T11:27:09.505Z,29.88
2022-08-21T11:29:41.105Z,29.94
2022-08-21T11:32:42.839Z,29.97
2022-08-21T11:35:22.159Z,30.04
2022-08-21T11:38:06.545Z,30.08
2022-08-21T11:40:52.142Z,30.13
2022-08-21T11:43:32.599Z,30.18
2022-08-21T11:46:21.227Z,30.22
2022-08-21T11:49:05.326Z,30.27
2022-08-21T11:51:38.993Z,30.32
2022-08-21T11:54:26.614Z,30.33
2022-08-21T11:57:03.323Z,30.36
2022-08-21T11:59:43.266Z,30.38
2022-08-21T12:02:17.026Z,30.42
2022-08-21T12:04:50.216Z,30.45
2022-08-21T12:07:32.655Z,30.48
2022-08-21T12:10:02.914Z,30.51
2022-08-21T12:12:35.246Z,30.53
2022-08-21T12:15:31.062Z,30.51
2022-08-21T12:18:04.709Z,30.52
2022-08-21T12:20:50.506Z,30.52
2022-08-21T12:23:49.361Z,30.54
2022-08-21T12:26:28.573Z,30.60
2022-08-21T12:29:25.090Z,30.66
2022-08-21T12:31:59.848Z,30.71
2022-08-21T12:34:37.188Z,30.77
2022-08-21T12:37:12.359Z,30.81
2022-08-21T12:39:46.387Z,30.86
2022-08-21T12:42:21.401Z,30.90
2022-08-21T12:44:57.803Z,30.95
2022-08-21T12:47:34.585Z,30.99
2022-08-21T12:50:08.215Z,31.05
2022-08-21T12:52:42.993Z,31.09
2022-08-21T12:55:16.750Z,31.10
2022-08-21T12:57:45.545Z,31.12
2022-08-21T13:00:22.317Z,31.14
2022-08-21T13:02:54.251Z,31.14
2022-08-21T13:05:34.295Z,31.13
2022-08-21T13:08:07.293Z,31.15
2022-08-21T13:10:37.486Z,31.13
2022-08-21T13:13:12.728Z,31.14
2022-08-21T13:15:47.541Z,31.14
2022-08-21T13:18:28.970Z,31.14
2022-08-21T13:21:09.283Z,31.13
2022-08-21T13:23:38.239Z,31.15
2022-08-21T13:26:18.627Z,31.20
2022-08-21T13:28:49.251Z,31.18
2022-08-21T13:31:29.397Z,31.17
2022-08-21T13:33:59.455Z,31.18
2022-08-21T13:36:32.060Z,31.19
2022-08-21T13:39:01.423Z,31.17
2022-08-21T13:41:34.675Z,31.19
2022-08-21T13:44:06.846Z,31.20
2022-08-21T13:46:39.116Z,31.20
2022-08-21T13:49:10.843Z,31.22
2022-08-21T13:51:39.811Z,31.23
2022-08-21T13:54:21.917Z,31.25
2022-08-21T13:56:50.510Z,31.27
2022-08-21T13:59:28.717Z,31.33
2022-08-21T14:02:01.040Z,31.39
2022-08-21T14:04:38.361Z,31.45
2022-08-21T14:07:21.797Z,31.50
2022-08-21T14:09:50.480Z,31.49
2022-08-21T14:12:26.747Z,31.46
2022-08-21T14:14:57.648Z,31.47
2022-08-21T14:17:33.836Z,31.50
2022-08-21T14:20:06.117Z,31.52
2022-08-21T14:22:42.060Z,31.56
2022-08-21T14:25:16.976Z,31.62
2022-08-21T14:27:52.955Z,31.67
2022-08-21T14:30:27.490Z,31.71
2022-08-21T14:32:56.402Z,31.74
2022-08-21T14:35:26.360Z,31.79
2022-08-21T14:37:55.714Z,31.80
2022-08-21T14:40:27.551Z,31.84
2022-08-21T14:42:57.147Z,31.84
2022-08-21T14:45:31.062Z,31.85
2022-08-21T14:48:00.902Z,31.85
2022-08-21T14:50:30.981Z,31.86
2022-08-21T14:52:59.877Z,31.85
2022-08-21T14:55:29.038Z,31.83
2022-08-21T14:57:58.504Z,31.84
2022-08-21T15:00:35.783Z,31.81
2022-08-21T15:03:07.600Z,31.79
2022-08-21T15:05:37.575Z,31.79
2022-08-21T15:08:06.420Z,31.79
2022-08-21T15:10:44.227Z,31.80
2022-08-21T15:13:21.758Z,31.77
2022-08-21T15:15:53.669Z,31.75
2022-08-21T15:18:22.635Z,31.70
2022-08-21T15:20:53.086Z,31.67
2022-08-21T15:23:22.721Z,31.68
2022-08-21T15:25:52.608Z,31.68
2022-08-21T15:28:22.266Z,31.67
2022-08-21T15:30:52.149Z,31.65
2022-08-21T15:33:21.219Z,31.64
2022-08-21T15:35:51.427Z,31.68
2022-08-21T15:38:20.043Z,31.65
2022-08-21T15:40:52.454Z,31.68
2022-08-21T15:43:29.818Z,31.72
2022-08-21T15:46:01.853Z,31.73
2022-08-21T15:48:31.111Z,31.70
2022-08-21T15:51:01.041Z,31.68
2022-08-21T15:53:29.639Z,31.63
2022-08-21T15:55:58.613Z,31.63
2022-08-21T15:58:27.344Z,31.62
2022-08-21T16:00:56.106Z,31.58
2022-08-21T16:03:26.149Z,31.56
2022-08-21T16:05:56.678Z,31.54
2022-08-21T16:08:27.575Z,31.52
2022-08-21T16:10:57.392Z,31.51
2022-08-21T16:13:30.786Z,31.51
2022-08-21T16:15:59.426Z,31.53
2022-08-21T16:18:28.967Z,31.55
2022-08-21T16:20:57.591Z,31.53
2022-08-21T16:23:28.051Z,31.52
2022-08-21T16:25:56.901Z,31.53
2022-08-21T16:28:26.016Z,31.54
2022-08-21T16:30:55.180Z,31.53
2022-08-21T16:33:32.231Z,31.56
2022-08-21T16:36:03.333Z,31.55
2022-08-21T16:38:34.067Z,31.53
2022-08-21T16:41:07.771Z,31.49
2022-08-21T16:43:36.983Z,31.46
2022-08-21T16:46:06.297Z,31.41
2022-08-21T16:48:34.859Z,31.39
2022-08-21T16:51:07.174Z,31.34
2022-08-21T16:53:37.908Z,31.33
2022-08-21T16:56:08.048Z,31.32
2022-08-21T16:58:40.228Z,31.30
2022-08-21T17:01:13.060Z,31.29
2022-08-21T17:03:47.057Z,31.25
2022-08-21T17:06:17.503Z,31.22
2022-08-21T17:08:47.880Z,31.20
2022-08-21T17:11:36.638Z,31.16
2022-08-21T17:14:11.003Z,31.14
2022-08-21T17:16:40.817Z,31.12
2022-08-21T17:19:09.787Z,31.11
2022-08-21T17:21:38.276Z,31.08
2022-08-21T17:24:08.568Z,31.08
2022-08-21T17:26:38.145Z,31.06
2022-08-21T17:29:10.007Z,31.04
2022-08-21T17:31:40.341Z,31.02
2022-08-21T17:34:10.175Z,30.98
2022-08-21T17:36:38.793Z,30.99
2022-08-21T17:39:09.914Z,31.01
2022-08-21T17:41:38.886Z,31.01
2022-08-21T17:44:14.245Z,31.03
2022-08-21T17:46:46.704Z,31.02
2022-08-21T17:49:16.021Z,31.00
2022-08-21T17:51:44.656Z,31.00
2022-08-21T17:54:14.661Z,30.97
2022-08-21T17:56:45.889Z,30.94
2022-08-21T17:59:15.741Z,30.91
2022-08-21T18:01:47.143Z,30.89
2022-08-21T18:04:16.822Z,30.87
2022-08-21T18:06:46.381Z,30.84
2022-08-21T18:09:18.387Z,30.84
2022-08-21T18:11:46.994Z,30.84
2022-08-21T18:14:15.771Z,30.85
2022-08-21T18:16:44.347Z,30.87
2022-08-21T18:19:16.096Z,30.88
2022-08-21T18:21:45.244Z,30.88
2022-08-21T18:24:13.911Z,30.88
2022-08-21T18:26:44.849Z,30.90
2022-08-21T18:29:16.870Z,30.90
2022-08-21T18:31:47.144Z,30.90
2022-08-21T18:34:25.558Z,30.91
2022-08-21T18:36:55.780Z,30.90
2022-08-21T18:39:36.463Z,30.87
2022-08-21T18:42:12.877Z,30.86
2022-08-21T18:44:45.975Z,30.84
2022-08-21T18:47:29.876Z,30.82
2022-08-21T18:49:58.653Z,30.80
2022-08-21T18:52:28.477Z,30.78
2022-08-21T18:54:57.533Z,30.77
2022-08-21T18:57:31.119Z,30.74
2022-08-21T19:00:00.156Z,30.70
2022-08-21T19:02:29.685Z,30.68
2022-08-21T19:04:58.211Z,30.66
2022-08-21T19:07:27.087Z,30.63
2022-08-21T19:10:24.386Z,30.62
2022-08-21T19:12:46.925Z,30.58
2022-08-21T19:15:19.908Z,30.55
2022-08-21T19:17:50.596Z,30.53
2022-08-21T19:20:26.133Z,30.50
2022-08-21T19:23:46.612Z,30.48
2022-08-21T19:27:34.339Z,30.42
2022-08-21T19:31:06.324Z,30.38
2022-08-21T19:34:22.199Z,30.37
2022-08-21T19:37:38.304Z,30.34
2022-08-21T19:40:42.467Z,30.32
2022-08-21T19:44:35.011Z,30.29
2022-08-21T19:47:58.663Z,30.23
2022-08-21T19:54:23.599Z,30.18
2022-08-21T19:57:23.289Z,30.17
2022-08-21T20:07:54.013Z,30.06
2022-08-21T20:11:22.552Z,30.03
2022-08-21T20:15:16.017Z,30.00
2022-08-21T20:18:37.253Z,29.98
2022-08-21T20:22:02.926Z,29.97
2022-08-21T20:25:36.011Z,29.93
2022-08-21T20:29:08.159Z,29.91
2022-08-21T20:33:10.558Z,29.89
2022-08-21T20:36:19.679Z,29.86
2022-08-21T22:16:53.910Z,29.10
2022-08-21T22:19:29.356Z,29.12
2022-08-21T22:22:08.794Z,29.12
2022-08-21T22:24:47.047Z,29.12
2022-08-21T22:27:23.124Z,29.13
2022-08-21T22:29:58.472Z,29.12
2022-08-21T22:32:34.462Z,29.13
2022-08-21T22:35:18.663Z,29.12
2022-08-21T22:37:50.442Z,29.12
2022-08-21T22:40:26.569Z,29.12
2022-08-21T22:43:02.739Z,29.12
2022-08-21T22:45:33.488Z,29.09
2022-08-21T22:51:04.610Z,29.07
2022-08-21T22:53:41.692Z,29.07
2022-08-21T22:56:28.650Z,29.05
2022-08-21T22:59:01.138Z,29.03
2022-08-21T23:01:40.675Z,29.02
2022-08-21T23:04:25.226Z,29.01
2022-08-21T23:06:58.251Z,29.01
2022-08-21T23:09:34.479Z,28.98
2022-08-21T23:12:21.214Z,28.97
2022-08-21T23:14:54.691Z,28.95
2022-08-21T23:17:40.816Z,28.94
2022-08-21T23:20:19.009Z,28.94
2022-08-21T23:23:06.075Z,28.93
2022-08-21T23:26:01.909Z,28.91
2022-08-21T23:28:51.097Z,28.88
2022-08-21T23:31:29.425Z,28.88
2022-08-21T23:34:09.249Z,28.85
2022-08-21T23:37:41.097Z,28.81
2022-08-21T23:40:50.436Z,28.78
2022-08-21T23:43:41.640Z,28.76
2022-08-21T23:46:33.429Z,28.74
2022-08-21T23:49:17.730Z,28.73
2022-08-21T23:52:01.352Z,28.74
2022-08-21T23:54:47.669Z,28.72
2022-08-21T23:57:40.710Z,28.70
